Time;durP1;ratioP1;P1;durP2;ratioP2;P2;SDS_P1;SDS_P2;PMS_P1;PMS_P2;Temp;Humidity;BMP_temperature;BMP_pressure;BME280_temperature;BME280_humidity;BME280_pressure;Samples;Min_cycle;Max_cycle;Signal;HPM_P1;HPM_P2
2023/06/20 00:02:16;;;;;;;6.05;5.40;;;;;;;19.11;100.00;95538.59;5050782;28;20024;-73
2023/06/20 00:04:41;;;;;;;7.07;5.60;;;;;;;19.10;100.00;95531.59;5068833;28;20020;-73
2023/06/20 00:07:06;;;;;;;6.53;6.00;;;;;;;19.10;100.00;95545.75;5075559;28;20515;-73
2023/06/20 00:09:32;;;;;;;11.07;6.22;;;;;;;19.03;100.00;95535.09;5071511;28;20080;-74
2023/06/20 00:11:57;;;;;;;7.35;5.32;;;;;;;18.94;100.00;95540.75;5069326;28;20024;-73
2023/06/20 00:14:23;;;;;;;6.43;5.32;;;;;;;18.90;100.00;95533.16;5072272;28;20028;-73
2023/06/20 00:16:49;;;;;;;7.43;5.75;;;;;;;18.93;100.00;95529.25;5058423;28;20025;-73
2023/06/20 00:19:14;;;;;;;6.50;5.90;;;;;;;18.93;100.00;95523.09;5053676;28;20060;-73
2023/06/20 00:21:40;;;;;;;9.57;5.35;;;;;;;18.95;100.00;95531.72;5072965;28;20545;-73
2023/06/20 00:24:09;;;;;;;6.78;5.85;;;;;;;18.86;100.00;95536.41;5068558;28;20024;-72
2023/06/20 00:26:36;;;;;;;6.25;5.75;;;;;;;18.81;100.00;95537.00;5075400;28;20032;-73
2023/06/20 00:29:01;;;;;;;6.10;5.50;;;;;;;18.69;100.00;95528.72;5072476;28;20021;-74
2023/06/20 00:31:27;;;;;;;6.45;5.75;;;;;;;18.60;100.00;95533.38;5054287;28;20362;-74
2023/06/20 00:33:55;;;;;;;5.90;5.40;;;;;;;18.61;100.00;95516.38;5076567;28;20031;-74
2023/06/20 00:36:26;;;;;;;6.43;5.82;;;;;;;18.57;100.00;95517.78;5074108;28;20023;-74
2023/06/20 00:38:53;;;;;;;7.90;5.65;;;;;;;18.48;100.00;95518.97;5058319;28;20020;-74
2023/06/20 00:41:21;;;;;;;6.75;5.90;;;;;;;18.44;100.00;95513.22;5060096;28;20107;-74
2023/06/20 00:43:50;;;;;;;6.75;6.05;;;;;;;18.43;100.00;95516.91;5054451;28;20469;-74
2023/06/20 00:46:23;;;;;;;6.32;5.57;;;;;;;18.30;100.00;95520.31;5071980;28;20511;-74
2023/06/20 00:48:49;;;;;;;6.78;5.75;;;;;;;18.30;100.00;95511.47;5074631;28;20033;-74
2023/06/20 00:51:16;;;;;;;6.13;5.68;;;;;;;18.26;100.00;95521.72;5079096;28;20035;-73
2023/06/20 00:53:43;;;;;;;5.97;5.57;;;;;;;18.29;100.00;95523.16;5068631;28;20025;-74
2023/06/20 00:56:11;;;;;;;7.50;6.20;;;;;;;18.31;100.00;95513.94;5075426;28;20154;-73
2023/06/20 00:58:37;;;;;;;7.03;6.00;;;;;;;18.33;100.00;95525.22;5067130;28;20505;-74
2023/06/20 01:01:02;;;;;;;6.47;5.60;;;;;;;18.31;100.00;95523.78;5062843;28;20013;-73
2023/06/20 01:03:28;;;;;;;6.57;6.07;;;;;;;18.28;100.00;95521.50;5067966;28;20466;-73
2023/06/20 01:06:11;;;;;;;6.72;5.63;;;;;;;18.31;100.00;95513.13;5066893;28;20071;-73
2023/06/20 01:09:01;;;;;;;6.32;5.82;;;;;;;18.15;100.00;95514.25;5073784;28;20032;-74
2023/06/20 01:11:48;;;;;;;6.68;6.13;;;;;;;17.93;100.00;95514.25;5061788;28;20041;-74
2023/06/20 01:14:35;;;;;;;7.90;5.95;;;;;;;17.87;100.00;95517.69;5076549;28;20036;-74
2023/06/20 01:17:05;;;;;;;11.30;6.93;;;;;;;17.95;100.00;95506.09;5072504;28;20388;-74
2023/06/20 01:20:09;;;;;;;6.85;6.22;;;;;;;17.92;100.00;95512.59;5069990;28;20070;-74
2023/06/20 01:22:43;;;;;;;7.43;6.78;;;;;;;17.86;100.00;95502.72;5068921;28;20381;-74
2023/06/20 01:25:17;;;;;;;7.10;6.45;;;;;;;17.82;100.00;95518.25;5071633;28;20032;-74
2023/06/20 01:28:29;;;;;;;7.15;6.55;;;;;;;17.72;100.00;95513.25;5048267;28;20570;-74
2023/06/20 01:31:10;;;;;;;7.85;6.35;;;;;;;17.62;100.00;95507.44;5056512;28;20055;-74
2023/06/20 01:33:43;;;;;;;6.40;5.80;;;;;;;17.59;100.00;95507.81;5065351;28;20114;-74
2023/06/20 01:36:10;;;;;;;9.75;6.22;;;;;;;17.59;100.00;95513.97;5073679;28;20562;-74
2023/06/20 01:38:39;;;;;;;6.88;6.15;;;;;;;17.57;100.00;95515.16;5074091;28;20028;-74
2023/06/20 01:41:06;;;;;;;7.03;6.45;;;;;;;17.57;100.00;95520.47;5076149;28;20382;-74
2023/06/20 01:43:34;;;;;;;7.95;6.25;;;;;;;17.59;100.00;95526.47;5070885;28;20067;-74
2023/06/20 01:46:02;;;;;;;7.18;6.57;;;;;;;17.57;100.00;95517.81;5075216;28;20062;-74
2023/06/20 01:48:31;;;;;;;7.57;6.78;;;;;;;17.52;100.00;95529.06;5065491;28;20033;-74
2023/06/20 01:50:58;;;;;;;8.77;6.25;;;;;;;17.52;100.00;95520.22;5073011;28;20028;-74
2023/06/20 01:53:25;;;;;;;7.30;6.47;;;;;;;17.51;100.00;95507.94;5067007;28;20059;-74
2023/06/20 01:55:52;;;;;;;7.18;6.55;;;;;;;17.50;100.00;95515.13;5074712;28;20039;-74
2023/06/20 01:58:19;;;;;;;7.80;6.75;;;;;;;17.53;100.00;95520.06;5073225;28;20115;-74
2023/06/20 02:00:45;;;;;;;7.05;6.35;;;;;;;17.57;100.00;95515.16;5069685;28;20059;-74
2023/06/20 02:03:12;;;;;;;7.22;6.53;;;;;;;17.55;100.00;95509.19;5069400;28;20064;-73
2023/06/20 02:05:41;;;;;;;7.50;6.50;;;;;;;17.51;100.00;95515.91;5065993;28;20048;-72
2023/06/20 02:08:07;;;;;;;7.05;6.18;;;;;;;17.49;100.00;95521.44;5070263;28;20052;-74
2023/06/20 02:10:34;;;;;;;6.85;6.00;;;;;;;17.45;100.00;95510.34;5060139;28;20481;-75
2023/06/20 02:13:01;;;;;;;7.07;6.38;;;;;;;17.42;100.00;95513.38;5054045;28;20113;-72
2023/06/20 02:15:28;;;;;;;7.80;6.53;;;;;;;17.40;100.00;95512.75;5039968;28;20025;-72
2023/06/20 02:17:54;;;;;;;7.40;6.78;;;;;;;17.45;100.00;95505.03;5066427;28;20111;-73
2023/06/20 02:20:20;;;;;;;7.90;7.10;;;;;;;17.45;100.00;95502.38;5051970;28;20593;-72
2023/06/20 02:22:46;;;;;;;6.88;6.38;;;;;;;17.27;100.00;95509.94;5057218;28;20425;-73
2023/06/20 02:25:19;;;;;;;6.95;6.25;;;;;;;17.14;100.00;95513.28;5075589;28;20040;-72
2023/06/20 02:27:47;;;;;;;7.75;6.93;;;;;;;17.12;100.00;95512.66;5076508;28;20021;-73
2023/06/20 02:30:15;;;;;;;8.55;6.50;;;;;;;17.11;100.00;95506.50;5071345;28;20032;-73
2023/06/20 02:32:42;;;;;;;7.70;6.97;;;;;;;17.11;100.00;95517.13;5071377;28;20192;-72
2023/06/20 02:35:10;;;;;;;6.63;6.10;;;;;;;17.13;100.00;95523.13;5066730;28;20028;-72
2023/06/20 02:37:37;;;;;;;7.55;6.93;;;;;;;17.18;100.00;95512.75;5071727;28;20052;-72
2023/06/20 02:40:05;;;;;;;9.80;7.68;;;;;;;17.14;100.00;95522.09;5072908;28;20021;-72
2023/06/20 02:42:31;;;;;;;7.40;6.72;;;;;;;17.09;100.00;95511.19;5075307;28;20059;-71
2023/06/20 02:44:56;;;;;;;7.22;6.53;;;;;;;17.08;100.00;95533.47;5066646;28;20500;-72
2023/06/20 02:47:35;;;;;;;7.82;7.03;;;;;;;17.10;100.00;95533.28;5068777;28;20025;-74
2023/06/20 02:50:27;;;;;;;7.40;6.63;;;;;;;17.09;100.00;95535.13;5072158;28;20392;-74
2023/06/20 02:53:17;;;;;;;10.52;6.97;;;;;;;17.06;100.00;95543.47;5073166;28;20031;-73
2023/06/20 02:55:57;;;;;;;10.15;6.20;;;;;;;17.02;100.00;95534.22;5069690;28;20024;-74
2023/06/20 02:58:26;;;;;;;7.10;6.50;;;;;;;17.02;100.00;95528.91;5066637;28;20036;-73
2023/06/20 03:00:53;;;;;;;7.30;6.55;;;;;;;17.03;100.00;95530.56;5073267;28;20060;-74
2023/06/20 03:03:43;;;;;;;6.95;6.45;;;;;;;17.04;100.00;95532.19;5072993;28;20032;-73
2023/06/20 03:06:11;;;;;;;7.53;6.50;;;;;;;16.97;100.00;95536.59;5065689;28;20504;-73
2023/06/20 03:08:40;;;;;;;7.47;6.75;;;;;;;16.93;100.00;95544.09;5070408;28;20036;-73
2023/06/20 03:11:06;;;;;;;9.65;6.68;;;;;;;16.88;100.00;95544.66;5073398;28;20017;-73
2023/06/20 03:13:31;;;;;;;7.85;7.13;;;;;;;16.79;100.00;95540.47;5074681;28;20040;-73
2023/06/20 03:15:57;;;;;;;8.43;6.65;;;;;;;16.71;100.00;95532.59;5081311;28;20028;-73
2023/06/20 03:18:22;;;;;;;7.47;6.88;;;;;;;16.65;100.00;95535.97;5060173;28;20115;-73
2023/06/20 03:20:48;;;;;;;12.02;7.13;;;;;;;16.65;100.00;95535.97;5083799;28;20027;-73
2023/06/20 03:23:14;;;;;;;7.30;6.70;;;;;;;16.64;100.00;95531.66;5078221;28;20032;-73
2023/06/20 03:25:40;;;;;;;8.43;7.30;;;;;;;16.65;100.00;95526.19;5074918;28;20107;-72
2023/06/20 03:28:06;;;;;;;7.95;7.20;;;;;;;16.60;100.00;95526.72;5062387;28;20392;-74
2023/06/20 03:30:32;;;;;;;12.80;6.90;;;;;;;16.61;100.00;95536.34;5073657;28;20025;-74
2023/06/20 03:32:57;;;;;;;8.77;7.57;;;;;;;16.56;100.00;95533.41;5076918;28;20028;-74
2023/06/20 03:35:22;;;;;;;7.35;6.75;;;;;;;16.56;100.00;95537.88;5078226;28;20108;-74
2023/06/20 03:37:48;;;;;;;7.60;6.90;;;;;;;16.57;100.00;95537.72;5056122;28;20031;-74
2023/06/20 03:40:13;;;;;;;11.00;7.15;;;;;;;16.58;100.00;95533.25;5074659;28;20040;-74
2023/06/20 03:42:39;;;;;;;7.97;7.30;;;;;;;16.54;100.00;95538.09;5071185;28;20028;-74
2023/06/20 03:45:05;;;;;;;7.97;7.20;;;;;;;16.55;100.00;95539.75;5066481;28;20029;-74
2023/06/20 03:47:30;;;;;;;8.70;7.30;;;;;;;16.53;100.00;95546.22;5070352;28;20020;-74
2023/06/20 03:49:55;;;;;;;7.38;6.68;;;;;;;16.50;100.00;95542.13;5064428;28;20031;-74
2023/06/20 03:52:21;;;;;;;8.05;7.18;;;;;;;16.45;100.00;95550.63;5074218;28;20061;-74
2023/06/20 03:54:46;;;;;;;8.50;7.63;;;;;;;16.46;100.00;95546.97;5066867;28;20021;-74
2023/06/20 03:57:12;;;;;;;10.02;7.30;;;;;;;16.51;100.00;95543.78;5069924;28;20028;-73
2023/06/20 03:59:37;;;;;;;9.57;7.15;;;;;;;16.54;100.00;95527.47;5073889;28;20024;-74
2023/06/20 04:02:04;;;;;;;10.40;6.90;;;;;;;16.56;100.00;95536.06;5076205;28;20028;-74
2023/06/20 04:04:29;;;;;;;8.57;6.85;;;;;;;16.50;100.00;95538.63;5074376;28;20028;-74
2023/06/20 04:06:55;;;;;;;7.75;6.97;;;;;;;16.50;100.00;95536.81;5074295;28;20485;-74
2023/06/20 04:09:23;;;;;;;8.07;6.97;;;;;;;16.56;100.00;95528.09;5077094;28;20025;-73
2023/06/20 04:11:50;;;;;;;9.05;7.65;;;;;;;16.56;100.00;95525.44;5080733;28;20039;-74
2023/06/20 04:14:15;;;;;;;6.93;6.25;;;;;;;16.51;100.00;95522.50;5072023;28;20463;-74
2023/06/20 04:16:41;;;;;;;7.90;7.13;;;;;;;16.35;100.00;95530.66;5072984;28;20033;-72
2023/06/20 04:19:07;;;;;;;8.15;7.35;;;;;;;16.26;100.00;95520.13;5077938;28;20047;-74
2023/06/20 04:21:32;;;;;;;7.53;6.82;;;;;;;16.28;100.00;95519.94;5074077;28;20033;-73
2023/06/20 04:23:58;;;;;;;9.15;7.50;;;;;;;16.28;100.00;95523.41;5077240;28;20743;-74
2023/06/20 04:26:23;;;;;;;8.73;7.85;;;;;;;16.26;100.00;95524.59;5081216;28;20460;-73
2023/06/20 04:28:49;;;;;;;8.20;7.38;;;;;;;16.30;100.00;95526.72;5079929;28;20046;-73
2023/06/20 04:31:14;;;;;;;9.32;8.02;;;;;;;16.37;100.00;95532.13;5076370;28;20047;-74
2023/06/20 04:33:46;;;;;;;9.25;7.13;;;;;;;16.40;100.00;95518.47;5077335;28;20036;-74
2023/06/20 04:36:14;;;;;;;8.68;7.90;;;;;;;16.47;100.00;95521.25;5072923;28;20024;-75
2023/06/20 04:38:40;;;;;;;8.13;7.30;;;;;;;16.55;100.00;95518.47;5061890;28;20115;-73
2023/06/20 04:41:06;;;;;;;8.93;7.43;;;;;;;16.61;100.00;95515.06;5077981;28;20369;-74
2023/06/20 04:43:32;;;;;;;8.00;7.20;;;;;;;16.66;100.00;95517.19;5060959;28;20047;-74
2023/06/20 04:45:57;;;;;;;10.50;7.88;;;;;;;16.71;100.00;95514.78;5085887;28;20488;-74
2023/06/20 04:48:30;;;;;;;10.90;7.72;;;;;;;16.66;100.00;95519.00;5077511;28;20139;-74
2023/06/20 04:50:56;;;;;;;8.95;7.97;;;;;;;16.66;100.00;95525.16;5076862;28;20028;-74
2023/06/20 04:53:23;;;;;;;8.52;7.57;;;;;;;16.69;100.00;95519.47;5076534;28;20033;-73
2023/06/20 04:55:49;;;;;;;9.07;7.93;;;;;;;16.78;100.00;95520.19;5080227;28;20536;-74
2023/06/20 04:58:15;;;;;;;12.82;8.52;;;;;;;16.76;100.00;95522.22;5079889;28;20123;-74
2023/06/20 05:00:40;;;;;;;10.07;7.88;;;;;;;16.74;100.00;95518.94;5074061;28;20028;-74
2023/06/20 05:03:06;;;;;;;12.32;8.23;;;;;;;16.81;100.00;95525.16;5077897;28;20112;-74
2023/06/20 05:05:32;;;;;;;10.85;7.03;;;;;;;16.92;100.00;95515.88;5076981;28;20059;-74
2023/06/20 05:07:57;;;;;;;12.27;7.60;;;;;;;17.01;100.00;95511.31;5076089;28;20428;-74
2023/06/20 05:10:23;;;;;;;12.43;8.07;;;;;;;17.07;100.00;95509.75;5076448;28;20035;-74
2023/06/20 05:12:48;;;;;;;18.95;7.25;;;;;;;17.14;100.00;95511.47;5079323;28;20023;-75
2023/06/20 05:15:14;;;;;;;18.00;8.07;;;;;;;17.31;100.00;95503.22;5076127;28;20044;-74
2023/06/20 05:17:39;;;;;;;11.35;7.15;;;;;;;17.37;100.00;95502.50;5078581;28;20092;-74
2023/06/20 05:20:06;;;;;;;14.35;7.63;;;;;;;17.38;100.00;95493.50;5076744;28;20072;-74
2023/06/20 05:22:35;;;;;;;11.65;7.40;;;;;;;17.43;100.00;95499.06;5077215;28;20078;-74
2023/06/20 05:25:00;;;;;;;15.02;7.43;;;;;;;17.45;100.00;95497.03;5077116;28;20031;-75
2023/06/20 05:27:25;;;;;;;11.27;7.63;;;;;;;17.47;100.00;95495.00;5080259;28;20085;-74
2023/06/20 05:29:51;;;;;;;10.90;7.00;;;;;;;17.49;100.00;95494.84;5072721;28;20123;-74
2023/06/20 05:32:16;;;;;;;12.07;7.30;;;;;;;17.55;100.00;95485.25;5068229;28;20041;-74
2023/06/20 05:34:42;;;;;;;11.00;7.20;;;;;;;17.57;100.00;95492.03;5069464;28;20504;-74
2023/06/20 05:37:07;;;;;;;8.70;6.70;;;;;;;17.61;100.00;95487.97;5076140;28;20729;-74
2023/06/20 05:39:32;;;;;;;10.75;7.05;;;;;;;17.66;100.00;95484.75;5069355;28;20008;-74
2023/06/20 05:41:58;;;;;;;11.27;7.53;;;;;;;17.76;100.00;95482.56;5070416;28;20498;-74
2023/06/20 05:44:23;;;;;;;9.95;6.28;;;;;;;17.83;100.00;95474.63;5070196;28;20456;-74
2023/06/20 05:46:49;;;;;;;7.65;6.53;;;;;;;17.92;100.00;95475.31;5083465;28;20503;-74
2023/06/20 05:49:15;;;;;;;13.52;6.80;;;;;;;18.07;100.00;95461.13;5058000;28;20027;-74
2023/06/20 05:51:41;;;;;;;12.60;6.35;;;;;;;18.14;100.00;95469.97;5073096;28;20279;-73
2023/06/20 05:54:07;;;;;;;8.85;6.38;;;;;;;18.26;100.00;95467.59;5080137;28;20021;-73
2023/06/20 05:56:33;;;;;;;10.60;6.93;;;;;;;18.41;100.00;95467.47;5078551;28;20397;-75
2023/06/20 05:58:58;;;;;;;11.93;6.13;;;;;;;18.59;100.00;95459.78;5071413;28;20051;-75
2023/06/20 06:01:24;;;;;;;8.95;6.45;;;;;;;18.76;100.00;95467.44;5070886;28;20028;-72
2023/06/20 06:03:49;;;;;;;10.02;7.25;;;;;;;18.90;100.00;95468.31;5076789;28;20024;-72
2023/06/20 06:06:15;;;;;;;10.00;6.68;;;;;;;19.01;100.00;95456.25;5065771;28;20035;-72
2023/06/20 06:08:41;;;;;;;12.43;6.25;;;;;;;19.09;100.00;95457.94;5057065;28;20072;-72
2023/06/20 06:11:07;;;;;;;11.60;6.20;;;;;;;19.10;100.00;95459.56;5075256;28;20016;-73
2023/06/20 06:13:33;;;;;;;12.85;6.50;;;;;;;19.17;100.00;95449.72;5074151;28;20042;-72
2023/06/20 06:15:59;;;;;;;12.75;6.10;;;;;;;19.28;100.00;95446.47;5070512;28;20013;-71
2023/06/20 06:18:24;;;;;;;11.30;6.80;;;;;;;19.44;100.00;95444.44;5089398;28;20048;-71
2023/06/20 06:20:49;;;;;;;9.90;6.40;;;;;;;19.56;100.00;95458.00;5076608;28;20032;-73
2023/06/20 06:23:15;;;;;;;16.20;7.30;;;;;;;19.68;100.00;95453.69;5073894;28;20099;-71
2023/06/20 06:25:40;;;;;;;14.82;7.13;;;;;;;19.82;100.00;95451.03;5074116;28;20039;-71
2023/06/20 06:28:05;;;;;;;13.73;7.13;;;;;;;20.02;100.00;95446.53;5064083;28;20531;-71
2023/06/20 06:30:33;;;;;;;12.88;6.57;;;;;;;20.25;100.00;95445.25;5086102;28;20579;-71
2023/06/20 06:33:01;;;;;;;12.02;6.80;;;;;;;20.43;100.00;95452.63;5075138;28;20036;-71
2023/06/20 06:35:30;;;;;;;9.02;6.57;;;;;;;20.66;100.00;95448.63;5074779;28;20024;-71
2023/06/20 06:37:57;;;;;;;9.30;6.18;;;;;;;20.97;100.00;95443.59;5074641;28;20067;-71
2023/06/20 06:40:23;;;;;;;14.77;5.93;;;;;;;21.19;100.00;95444.09;5075077;28;20113;-71
2023/06/20 06:42:48;;;;;;;8.88;5.90;;;;;;;21.27;100.00;95443.00;5074374;28;20115;-72
2023/06/20 06:45:13;;;;;;;8.95;6.00;;;;;;;21.47;100.00;95437.53;5044773;28;20092;-71
2023/06/20 06:47:39;;;;;;;9.82;6.60;;;;;;;21.69;100.00;95440.69;5070411;28;20452;-71
2023/06/20 06:50:06;;;;;;;7.75;6.20;;;;;;;21.99;100.00;95431.16;5074787;28;20029;-71
2023/06/20 06:52:34;;;;;;;10.35;5.53;;;;;;;22.25;100.00;95434.63;5082274;28;20028;-71
2023/06/20 06:55:00;;;;;;;10.48;5.68;;;;;;;22.52;100.00;95424.47;5074838;28;20030;-71
2023/06/20 06:57:25;;;;;;;9.90;6.07;;;;;;;22.80;100.00;95431.16;5061695;28;20485;-71
2023/06/20 06:59:50;;;;;;;14.75;6.65;;;;;;;22.88;100.00;95435.38;5070071;28;20039;-71
2023/06/20 07:02:16;;;;;;;9.65;6.00;;;;;;;22.91;100.00;95439.50;5037241;28;20044;-71
2023/06/20 07:04:41;;;;;;;11.05;6.10;;;;;;;23.16;100.00;95426.75;5062645;28;20104;-71
2023/06/20 07:07:07;;;;;;;12.35;6.88;;;;;;;23.38;100.00;95442.38;5076551;28;20027;-71
2023/06/20 07:09:32;;;;;;;8.63;6.35;;;;;;;23.66;100.00;95432.88;5072491;28;20083;-71
2023/06/20 07:11:58;;;;;;;7.18;6.00;;;;;;;23.89;100.00;95431.25;5058895;28;20042;-71
2023/06/20 07:14:23;;;;;;;11.23;6.03;;;;;;;24.11;100.00;95428.00;5074509;28;20028;-71
2023/06/20 07:16:49;;;;;;;8.57;6.22;;;;;;;24.31;100.00;95423.09;5064931;28;20017;-71
2023/06/20 07:19:14;;;;;;;8.65;6.40;;;;;;;24.37;100.00;95442.03;5070936;28;20064;-72
2023/06/20 07:21:39;;;;;;;7.05;6.10;;;;;;;24.51;100.00;95431.81;5070199;28;20397;-72
2023/06/20 07:24:05;;;;;;;6.75;5.95;;;;;;;24.63;100.00;95440.72;5078486;28;20035;-72
2023/06/20 07:26:30;;;;;;;7.35;5.97;;;;;;;24.61;100.00;95438.25;5076591;28;20024;-71
2023/06/20 07:28:56;;;;;;;11.02;6.03;;;;;;;24.65;100.00;95448.53;5066213;28;20025;-71
2023/06/20 07:31:21;;;;;;;8.50;5.90;;;;;;;24.62;100.00;95449.84;5079606;28;20078;-71
2023/06/20 07:33:47;;;;;;;8.15;6.78;;;;;;;24.54;100.00;95459.09;5094287;28;20488;-71
2023/06/20 07:36:13;;;;;;;10.13;6.18;;;;;;;24.58;100.00;95451.38;5067183;28;20121;-71
2023/06/20 07:38:39;;;;;;;9.07;6.25;;;;;;;24.75;100.00;95457.66;5081878;28;20036;-72
2023/06/20 07:41:04;;;;;;;6.72;6.03;;;;;;;24.75;100.00;95460.34;5061844;28;20055;-72
2023/06/20 07:43:29;;;;;;;7.60;5.55;;;;;;;24.68;100.00;95466.91;5077163;28;20107;-72
2023/06/20 07:45:55;;;;;;;6.85;6.05;;;;;;;24.88;100.00;95469.22;5072470;28;20158;-72
2023/06/20 07:48:26;;;;;;;9.90;5.80;;;;;;;24.84;100.00;95476.97;5060947;28;20025;-72
2023/06/20 07:50:52;;;;;;;8.80;6.10;;;;;;;24.80;100.00;95478.50;5071569;28;20020;-72
2023/06/20 07:53:18;;;;;;;6.95;6.28;;;;;;;24.99;100.00;95475.63;5078109;28;20032;-72
2023/06/20 07:55:43;;;;;;;7.53;5.40;;;;;;;25.24;100.00;95475.34;5062230;28;20036;-72
2023/06/20 07:58:08;;;;;;;6.97;6.28;;;;;;;25.30;100.00;95474.34;5044659;28;20386;-72
2023/06/20 08:00:34;;;;;;;7.28;5.80;;;;;;;25.14;100.00;95484.03;5066229;28;20025;-71
2023/06/20 08:03:00;;;;;;;6.70;6.07;;;;;;;25.31;100.00;95485.94;5071573;28;20148;-72
2023/06/20 08:05:25;;;;;;;9.90;6.47;;;;;;;25.44;100.00;95485.66;5048000;28;20500;-71
2023/06/20 08:07:51;;;;;;;8.65;5.93;;;;;;;25.69;100.00;95479.13;5071598;28;20392;-72
2023/06/20 08:10:16;;;;;;;7.93;6.07;;;;;;;25.74;100.00;95487.28;5077512;28;20028;-72
2023/06/20 08:12:42;;;;;;;7.75;6.03;;;;;;;26.10;100.00;95488.94;5074653;28;20082;-72
2023/06/20 08:15:07;;;;;;;6.65;5.72;;;;;;;26.15;100.00;95492.53;5076577;28;20650;-72
2023/06/20 08:17:33;;;;;;;6.45;5.75;;;;;;;26.17;100.00;95493.16;5076974;28;20039;-72
2023/06/20 08:19:59;;;;;;;8.88;6.03;;;;;;;26.33;100.00;95487.16;5080228;28;20568;-72
2023/06/20 08:22:26;;;;;;;6.32;5.80;;;;;;;26.49;100.00;95486.31;5077846;28;20480;-72
2023/06/20 08:24:51;;;;;;;8.90;5.93;;;;;;;26.23;100.00;95477.03;5077624;28;20033;-72
2023/06/20 08:27:17;;;;;;;6.82;6.20;;;;;;;26.08;100.00;95469.50;5072095;28;20033;-72
2023/06/20 08:29:42;;;;;;;10.40;6.28;;;;;;;25.98;100.00;95467.44;5080405;28;20076;-72
2023/06/20 08:32:08;;;;;;;9.18;6.13;;;;;;;25.87;100.00;95474.56;5077225;28;20138;-72
2023/06/20 08:34:33;;;;;;;8.38;6.85;;;;;;;26.09;100.00;95476.53;5077289;28;20424;-72
2023/06/20 08:36:58;;;;;;;7.28;6.60;;;;;;;26.25;100.00;95473.03;5077514;28;20101;-72
2023/06/20 08:39:24;;;;;;;7.10;6.40;;;;;;;26.46;100.00;95471.44;5065328;28;20024;-72
2023/06/20 08:41:50;;;;;;;7.13;6.43;;;;;;;26.66;100.00;95466.59;5088216;28;20039;-72
2023/06/20 08:44:16;;;;;;;7.13;6.47;;;;;;;26.55;100.00;95474.53;5077434;28;20542;-72
2023/06/20 08:46:41;;;;;;;7.55;6.15;;;;;;;26.59;100.00;95470.25;5067646;28;20032;-72
2023/06/20 08:49:07;;;;;;;7.90;6.65;;;;;;;26.60;100.00;95455.69;5064918;28;20036;-72
2023/06/20 08:51:38;;;;;;;6.95;6.40;;;;;;;26.64;100.00;95463.28;5086042;28;20028;-72
2023/06/20 08:54:06;;;;;;;8.18;6.32;;;;;;;26.74;100.00;95463.44;5066810;28;20052;-72
2023/06/20 08:56:32;;;;;;;7.82;6.70;;;;;;;26.75;100.00;95459.66;5077382;28;20020;-72
2023/06/20 08:58:58;;;;;;;6.93;6.22;;;;;;;27.02;100.00;95458.94;5078499;28;20024;-72
2023/06/20 09:01:23;;;;;;;9.70;6.78;;;;;;;26.84;100.00;95466.25;5093010;28;20027;-72
2023/06/20 09:03:52;;;;;;;7.53;6.70;;;;;;;26.38;100.00;95462.94;5075132;28;20366;-72
2023/06/20 09:06:32;;;;;;;9.43;5.80;;;;;;;26.60;100.00;95463.00;5070627;28;20043;-72
2023/06/20 09:08:57;;;;;;;6.95;6.28;;;;;;;26.90;100.00;95472.56;5083614;28;20024;-72
2023/06/20 09:11:24;;;;;;;8.05;6.50;;;;;;;26.98;100.00;95474.84;5070666;28;20023;-72
2023/06/20 09:13:50;;;;;;;9.77;6.28;;;;;;;27.42;100.00;95471.25;5075497;28;20044;-72
2023/06/20 09:16:15;;;;;;;6.38;5.78;;;;;;;27.63;100.00;95479.59;5064382;28;20032;-72
2023/06/20 09:18:40;;;;;;;7.80;6.05;;;;;;;27.84;100.00;95479.78;5082424;28;20123;-72
2023/06/20 09:21:13;;;;;;;9.20;6.35;;;;;;;27.91;100.00;95480.38;5074943;28;20020;-72
2023/06/20 09:23:39;;;;;;;8.25;5.80;;;;;;;27.82;100.00;95484.66;5076407;28;20025;-72
2023/06/20 09:26:17;;;;;;;7.00;6.13;;;;;;;27.71;100.00;95484.53;5072614;28;20017;-71
2023/06/20 09:28:43;;;;;;;11.95;5.85;;;;;;;27.81;100.00;95474.91;5075495;28;20019;-72
2023/06/20 09:31:09;;;;;;;10.85;6.22;;;;;;;27.88;100.00;95468.22;5088062;28;20016;-72
2023/06/20 09:33:37;;;;;;;6.07;5.40;;;;;;;28.15;100.00;95469.22;5068758;28;20028;-72
2023/06/20 09:36:13;;;;;;;9.68;6.15;;;;;;;28.39;100.00;95474.25;5061838;28;20025;-72
2023/06/20 09:38:52;;;;;;;10.27;6.05;;;;;;;28.23;100.00;95470.66;5093522;28;20492;-72
2023/06/20 09:41:18;;;;;;;7.07;5.68;;;;;;;28.16;100.00;95473.56;5076258;28;20021;-72
2023/06/20 09:43:44;;;;;;;7.57;5.47;;;;;;;28.64;100.00;95483.66;5070959;28;20035;-72
2023/06/20 09:46:09;;;;;;;8.85;5.55;;;;;;;28.90;100.00;95471.06;5069115;28;20016;-72
2023/06/20 09:48:36;;;;;;;6.35;5.75;;;;;;;28.60;100.00;95473.31;5075867;28;20073;-72
2023/06/20 09:51:03;;;;;;;6.65;5.90;;;;;;;28.60;100.00;95462.47;5075909;28;20032;-72
2023/06/20 09:53:41;;;;;;;6.85;5.18;;;;;;;29.14;100.00;95466.00;5057867;28;20028;-72
2023/06/20 09:56:08;;;;;;;8.52;5.80;;;;;;;29.05;100.00;95477.63;5061488;28;20028;-72
2023/06/20 09:58:36;;;;;;;8.98;5.10;;;;;;;29.48;100.00;95469.38;5073922;28;20080;-72
2023/06/20 10:01:04;;;;;;;8.88;5.43;;;;;;;29.53;100.00;95472.91;5084822;28;20024;-72
2023/06/20 10:03:29;;;;;;;7.72;5.47;;;;;;;29.68;100.00;95472.09;5048901;28;20025;-72
2023/06/20 10:05:57;;;;;;;7.93;5.53;;;;;;;29.73;100.00;95483.00;5057577;28;20056;-72
2023/06/20 10:08:24;;;;;;;6.30;5.70;;;;;;;30.13;100.00;95471.59;5075181;28;20035;-72
2023/06/20 10:10:49;;;;;;;6.05;5.53;;;;;;;30.35;100.00;95476.75;5063547;28;20024;-73
2023/06/20 10:13:15;;;;;;;11.30;5.05;;;;;;;30.70;100.00;95464.19;5075842;28;20397;-72
2023/06/20 10:15:41;;;;;;;5.45;4.93;;;;;;;30.72;100.00;95462.03;5064701;28;20031;-73
2023/06/20 10:18:19;;;;;;;6.38;5.13;;;;;;;30.85;100.00;95459.81;5075775;28;20536;-73
2023/06/20 10:20:44;;;;;;;9.70;5.60;;;;;;;30.55;100.00;95448.72;5060124;28;20033;-72
2023/06/20 10:23:10;;;;;;;6.43;4.93;;;;;;;30.68;100.00;95457.44;5038641;28;20041;-72
2023/06/20 10:25:51;;;;;;;5.18;4.70;;;;;;;30.96;100.00;95441.56;5083750;28;20032;-72
2023/06/20 10:28:19;;;;;;;9.98;5.47;;;;;;;30.92;100.00;95440.50;5064593;28;20052;-69
2023/06/20 10:30:54;;;;;;;6.05;4.90;;;;;;;30.68;100.00;95443.84;5057174;28;20044;-70
2023/06/20 10:33:43;;;;;;;8.15;5.25;;;;;;;30.47;100.00;95435.72;5070974;28;20029;-68
2023/06/20 10:36:12;;;;;;;9.75;5.53;;;;;;;29.79;100.00;95434.16;5068670;28;20020;-69
2023/06/20 10:38:59;;;;;;;6.72;5.25;;;;;;;29.71;100.00;95430.09;5074882;28;20017;-70
2023/06/20 10:41:28;;;;;;;6.20;5.03;;;;;;;29.77;100.00;95428.19;5068291;28;20229;-70
2023/06/20 10:44:01;;;;;;;10.63;5.53;;;;;;;29.63;100.00;95428.72;5068299;28;20499;-69
2023/06/20 10:46:35;;;;;;;7.90;5.40;;;;;;;29.42;100.00;95430.59;5077677;28;20028;-70
2023/06/20 10:49:03;;;;;;;7.85;5.03;;;;;;;28.75;100.00;95433.84;5074148;28;20095;-70
2023/06/20 10:51:29;;;;;;;7.47;4.88;;;;;;;28.88;100.00;95430.69;5075185;28;20020;-72
2023/06/20 10:54:14;;;;;;;10.52;5.22;;;;;;;28.38;100.00;95435.56;5057878;28;20035;-72
2023/06/20 10:56:40;;;;;;;7.50;5.28;;;;;;;28.16;100.00;95441.09;5056561;28;20028;-72
2023/06/20 10:59:13;;;;;;;8.35;5.50;;;;;;;28.20;100.00;95436.81;5071930;28;20032;-72
2023/06/20 11:01:39;;;;;;;7.13;5.68;;;;;;;28.37;100.00;95439.34;5068548;28;20029;-72
2023/06/20 11:04:09;;;;;;;8.68;5.22;;;;;;;28.99;100.00;95447.81;5071601;28;20477;-72
2023/06/20 11:06:35;;;;;;;12.82;5.70;;;;;;;28.98;100.00;95451.59;5070961;28;20021;-72
2023/06/20 11:09:00;;;;;;;7.90;5.60;;;;;;;29.43;100.00;95443.88;5074265;28;20508;-72
2023/06/20 11:11:39;;;;;;;9.73;5.75;;;;;;;29.96;100.00;95453.69;5074975;28;20039;-72
2023/06/20 11:14:22;;;;;;;7.18;5.10;;;;;;;30.00;100.00;95438.50;5067570;28;20507;-72
2023/06/20 11:16:49;;;;;;;10.32;5.45;;;;;;;30.33;100.00;95440.94;5075369;28;20024;-72
2023/06/20 11:19:14;;;;;;;8.32;5.32;;;;;;;30.57;100.00;95438.41;5073969;28;20048;-72
2023/06/20 11:21:41;;;;;;;8.10;5.25;;;;;;;30.99;100.00;95441.00;5076011;28;20534;-72
2023/06/20 11:24:06;;;;;;;9.32;5.85;;;;;;;30.96;100.00;95452.44;5078869;28;20020;-72
2023/06/20 11:26:33;;;;;;;7.50;5.45;;;;;;;30.86;100.00;95443.25;5084595;28;20465;-72
2023/06/20 11:28:59;;;;;;;13.48;5.55;;;;;;;31.06;100.00;95444.25;5073853;28;20060;-72